Tiempo atmosférico en la estación meteorológica de Amieva, Panizales, Asturias (360 m.)



Fecha
DESCASC
Temp. máxima en grados centígrados (hora)
DESCASC
Temp. mínima en grados centígrados (hora)
DESCASC
Temp. media en grados centígrados
DESCASC
Racha de viento máxima en m/sg (hora)
DESCASC
Velocidad máxima media en intervalos de 10 minutos(hora)
DESCASC
Precipitaciones diarias en mm
DESCASC
Precipitaciones de 00:00 a 06:00 en mm
DESCASC
Precipitaciones de 06:00 a 12:00 en mm
DESCASC
Precipitaciones de 12:00 a 18:00 en mm
DESCASC
Precipitaciones de 18:00 a 24:00 en mm
DESCASC
14-12-2019 17 (14:10) 6.8 (00:10) 11.9 15 (23:40) 8.33 (23:40) 0 0 0 0 0
13-12-2019 17.7 (14:30) 7 (23:50) 12.4 12.78 (05:00) 4.44 (11:10) 0 0 0 0 0
12-12-2019 14.3 (23:10) 8.4 (03:20) 11.3 12.78 (13:30) 7.78 (13:00) 16.4 0.2 0.6 9 6.6
11-12-2019 13.1 (14:20) 6.5 (00:00) 9.8 10.83 (18:50) 2.78 (20:30) 9.2 5.2 4 0 0
10-12-2019 16.4 (16:00) 2.2 (00:00) 9.3 8.06 (16:00) 4.17 (16:00) 0 0 0 0 0
09-12-2019 12.9 (12:50) 3.4 (00:00) 8.1 5.83 (03:50) 3.06 (03:50) 0 0 0 0 0
08-12-2019 12.5 (09:10) 6 (00:00) 9.3 5.28 (15:30) 2.22 (06:00) 6 0 3.8 2.2 0
07-12-2019 16.5 (14:30) 3.8 (00:00) 10.1 3.33 (21:10) 1.67 (02:50) 0 0 0 0 0
06-12-2019 12.5 (14:00) 3.6 (00:00) 8 3.89 (11:40) 1.67 (11:40) 0 0 0 0 0
05-12-2019 9.4 (14:10) 5.2 (00:00) 7.3 2.78 (07:40) 1.94 (21:10) 4.6 3.2 1.4 0 0
04-12-2019 10.2 (15:40) -0.4 (00:00) 4.9 3.33 (14:40) 1.94 (14:40) 0.2 0 0 0.2 0
03-12-2019 10.1 (15:00) 0.4 (00:00) 5.3 5.83 (12:30) 2.78 (14:10) 0.2 0.2 0 0 0
02-12-2019 7.4 (11:30) 3.9 (00:00) 5.7 8.33 (15:20) 4.17 (12:10) 26.8 3.6 14 9.2 0
01-12-2019 11.2 (02:30) 6.5 (00:00) 8.8 10 (01:40) 5 (01:30) 37.4 0 4.2 11.6 21.6
30-11-2019 17.2 (05:30) 6.2 (00:00) 11.7 15 (05:10) 7.5 (05:10) 4.8 0 4.6 0.2 0
29-11-2019 17.1 (15:00) 7.3 (00:00) 12.2 9.72 (23:40) 5 (23:59) 0.6 0.6 0 0 0
28-11-2019 12.4 (19:20) 7.3 (00:00) 9.8 9.17 (18:00) 4.17 (19:50) 11.8 0 0 5.2 6.6
27-11-2019 16 (12:30) 8.2 (00:00) 12.1 12.22 (02:00) 6.11 (01:50) 0.2 0 0 0.2 0
26-11-2019 21.3 (13:30) 10.2 (00:00) 15.7 15.56 (01:40) 8.33 (02:00) 0.4 0 0 0 0.4
25-11-2019 17 (13:20) 8.1 (00:00) 12.6 15 (23:59) 6.11 (01:30) 0 0 0 0 0
24-11-2019 13.9 (23:40) 6.8 (00:00) 10.3 16.67 (19:20) 8.33 (18:40) 0.2 0 0 0 0.2
23-11-2019 9.7 (00:00) 7 (00:00) 8.3 11.39 (05:10) 2.78 (09:50) 46.8 33 4.8 8.2 0.8
22-11-2019 17.6 (15:30) 9.7 (00:00) 13.7 24.17 (10:30) 10.83 (09:40) 1.6 0 0.6 0 1
21-11-2019 15.1 (13:30) 4.6 (00:00) 9.9 10.28 (22:10) 4.72 (13:50) 0.2 0 0.2 0 0
20-11-2019 12.2 (12:30) 9.2 (00:00) 10.7 11.94 (11:10) 6.11 (12:00) 0 0 0 0 0
19-11-2019 12 (15:20) 1.7 (00:00) 6.9 10.28 (15:50) 4.17 (16:10) 0 0 0 0 0
18-11-2019 7.9 (14:50) 5 (00:00) 6.5 2.78 (15:30) 1.39 (02:20) 0 0 0 0 0
17-11-2019 10.4 (12:30) 5.7 (00:00) 8 8.33 (07:20) 3.33 (01:20) 0 0 0 0 0
16-11-2019 9.2 (16:00) 2.7 (00:00) 5.9 -- (--) -- (--) -- -- 0.2 0.2 0
15-11-2019 5.7 (08:00) 2.7 (00:00) 4.2 7.5 (09:00) 2.78 (09:00) 57.4 18 16.2 13.4 9.8

Gráficas

Temp. máximas Temp. mínimas Temp. medias Precipitaciones Rachas de viento máximas Velocidades máximas media en intervalos de 10 minutos

Datos horarios

Fecha y hora oficial Temperatura (ºC) Velocidad del viento (km/h) Dirección del viento Racha (km/h) Dirección de racha Precipitación (mm) Presión (hPa) Tendencia (hPa) Humedad (%)
2019-12-14 23:00:00 15.2 20 Sudeste 45 Sudeste 0 -- -- 53
2019-12-14 22:00:00 15 19 Sudeste 41 Sur 0 -- -- 54
2019-12-14 21:00:00 15.4 20 Sudeste 48 Sudoeste 0 -- -- 54
2019-12-14 20:00:00 15.5 17 Sudeste 37 Sudeste 0 -- -- 54
2019-12-14 19:00:00 15.6 18 Sudeste 40 Sudeste 0 -- -- 52
2019-12-14 18:00:00 15.7 21 Sudeste 40 Sudeste 0 -- -- 52
2019-12-14 17:00:00 15.5 18 Sudeste 36 Este 0 -- -- 53
2019-12-14 16:00:00 15.2 18 Sudeste 38 Sudeste 0 -- -- 55
2019-12-14 15:00:00 15.4 18 Sudeste 41 Sudeste 0 -- -- 53
2019-12-14 14:00:00 16.6 21 Sudeste 42 Sudeste 0 -- -- 51
2019-12-14 13:00:00 14.4 26 Sudeste 47 Este 0 -- -- 55
2019-12-14 12:00:00 14.1 27 Sudeste 46 Este 0 -- -- 55
2019-12-14 11:00:00 13.4 24 Sudeste 41 Sudeste 0 -- -- 57
2019-12-14 10:00:00 12.4 21 Sudeste 38 Sudeste 0 -- -- 59
2019-12-14 09:00:00 10.8 14 Sudeste 28 Sudeste 0 -- -- 64
2019-12-14 08:00:00 8.2 2 Oeste 19 Sudeste 0 -- -- 75
2019-12-14 07:00:00 8.4 3 Oeste 13 Sur 0 -- -- 75
2019-12-14 06:00:00 7.9 0 Calma 13 Sur 0 -- -- 79
2019-12-14 05:00:00 8.8 2 Noroeste 26 Sudeste 0 -- -- 75
2019-12-14 04:00:00 8.8 3 Sudeste 27 Sudeste 0 -- -- 79
2019-12-14 03:00:00 9.9 10 Sur 29 Sudeste 0 -- -- 74
2019-12-14 02:00:00 8.2 5 Noroeste 12 Oeste 0 -- -- 88
2019-12-14 01:00:00 7 3 Sudoeste 9 Sur 0 -- -- 96
2019-12-14 00:00:00 7.1 0 Calma 6 Sur 0 -- -- 95
2019-12-13 23:00:00 7.8 3 Noroeste 6 Oeste 0 -- -- 91
2019-12-13 22:00:00 8.2 2 Norte 7 Oeste 0 -- -- 92
2019-12-13 21:00:00 8.4 0 Calma 5 Oeste 0 -- -- 92
2019-12-13 20:00:00 9.4 0 Calma 4 Norte 0 -- -- 90
2019-12-13 19:00:00 10.9 0 Calma 7 Norte 0 -- -- 84
2019-12-13 18:00:00 13 5 Norte 7 Norte 0 -- -- 76
2019-12-13 17:00:00 16.1 3 Norte 6 Sudoeste 0 -- -- 68
2019-12-13 16:00:00 17.5 4 Sur 29 Noroeste 0 -- -- 59
2019-12-13 15:00:00 17.5 7 Nordeste 27 Noroeste 0 -- -- 60
2019-12-13 14:00:00 17.6 11 Noroeste 37 Norte 0 -- -- 61
2019-12-13 13:00:00 17 9 Oeste 29 Oeste 0 -- -- 63
2019-12-13 12:00:00 16.4 7 Norte 40 Oeste 0 -- -- 63
2019-12-13 11:00:00 16.1 14 Oeste 44 Oeste 0 -- -- 66
2019-12-13 10:00:00 15.8 9 Oeste 32 Oeste 0 -- -- 68
2019-12-13 09:00:00 15.7 12 Noroeste 38 Oeste 0 -- -- 68
2019-12-13 08:00:00 16.1 11 Oeste 36 Nordeste 0 -- -- 66
2019-12-13 07:00:00 16.1 11 Sur 35 Oeste 0 -- -- 66
2019-12-13 06:00:00 16.1 11 Norte 40 Oeste 0 -- -- 66
2019-12-13 05:00:00 16.4 14 Noroeste 46 Oeste 0 -- -- 66
2019-12-13 04:00:00 16.6 9 Este 37 Norte 0 -- -- 65
2019-12-13 03:00:00 16.2 12 Nordeste 29 Norte 0 -- -- 69
2019-12-13 02:00:00 15.2 10 Norte 33 Norte 0 -- -- 76
2019-12-13 01:00:00 14.7 13 Sur 37 Oeste 0 -- -- 80
2019-12-13 00:00:00 14 9 Norte 30 Norte 0.6 -- -- 85
2019-12-12 23:00:00 14.2 10 Norte 21 Nordeste 1.4 -- -- 85
2019-12-12 22:00:00 13.8 8 Norte 33 Norte 1.2 -- -- 85
2019-12-12 21:00:00 13.2 7 Norte 19 Norte 0.8 -- -- 90
2019-12-12 20:00:00 13 9 Norte 31 Norte 1.2 -- -- 88
2019-12-12 19:00:00 12.6 8 Noroeste 33 Norte 1.4 -- -- 90
2019-12-12 18:00:00 12.2 8 Nordeste 33 Norte 1.8 -- -- 91
2019-12-12 17:00:00 9.4 4 Nordeste 23 Sudeste 3 -- -- 98
2019-12-12 16:00:00 9.3 10 Sudeste 33 Sudeste 1.6 -- -- 91
2019-12-12 15:00:00 9.7 18 Sudeste 42 Sudeste 1.2 -- -- 87
2019-12-12 14:00:00 9.5 18 Sudeste 46 Sudeste 0.8 -- -- 82
2019-12-12 13:00:00 9.5 28 Sudeste 46 Sudeste 0.6 -- -- 80
2019-12-12 12:00:00 9.8 23 Sudeste 45 Sudeste 0 -- -- 76
2019-12-12 11:00:00 10.4 18 Sudeste 45 Sudeste 0.2 -- -- 67
2019-12-12 10:00:00 8.6 18 Sudeste 37 Este 0.4 -- -- 79
2019-12-12 09:00:00 9 13 Sudeste 35 Sudeste 0 -- -- 76
2019-12-12 08:00:00 9.4 17 Sudeste 40 Sudeste 0 -- -- 74
2019-12-12 07:00:00 9.5 18 Sudeste 32 Sudeste 0 -- -- 71
2019-12-12 06:00:00 9.5 17 Sudeste 33 Sudeste 0 -- -- 72
2019-12-12 05:00:00 8.5 17 Sudeste 30 Sur 0.2 -- -- 79
2019-12-12 04:00:00 8.7 15 Sudeste 28 Sudeste 0 -- -- 78
2019-12-12 03:00:00 8.8 4 Sur 15 Sudeste 0 -- -- 81
2019-12-12 02:00:00 9.4 5 Este 14 Nordeste 0 -- -- 69
2019-12-12 01:00:00 9.6 2 Nordeste 16 Sur 0 -- -- 67
2019-12-12 00:00:00 9.8 4 Oeste 22 Oeste 0 -- -- 72
2019-12-11 23:00:00 10.2 4 Norte 22 Nordeste 0 -- -- 64
2019-12-11 22:00:00 10.3 7 Sudoeste 29 Noroeste 0 -- -- 64
2019-12-11 21:00:00 10.5 6 Oeste 33 Oeste 0 -- -- 63
2019-12-11 20:00:00 10.5 9 Norte 33 Oeste 0 -- -- 63
2019-12-11 19:00:00 10.5 9 Oeste 39 Sudoeste 0 -- -- 59
2019-12-11 18:00:00 10.6 8 Norte 22 Oeste 0 -- -- 58
2019-12-11 17:00:00 11.2 8 Nordeste 21 Norte 0 -- -- 55
2019-12-11 16:00:00 12.1 8 Sudoeste 28 Este 0 -- -- 50
2019-12-11 15:00:00 11.7 6 Este 21 Sudoeste 0 -- -- 46
2019-12-11 14:00:00 12.7 6 Sudeste 22 Sudeste 0 -- -- 52
2019-12-11 13:00:00 11.5 6 Sur 20 Sur 0 -- -- 64
2019-12-11 12:00:00 9.8 6 Sudeste 15 Sur 0 -- -- 70
2019-12-11 11:00:00 7.1 7 Nordeste 22 Sudoeste 0.4 -- -- 85
2019-12-11 10:00:00 7 5 Norte 12 Norte 0.2 -- -- 86
2019-12-11 09:00:00 6.7 8 Nordeste 18 Norte 0.4 -- -- 90
2019-12-11 08:00:00 7.3 4 Este 13 Nordeste 1 -- -- 90
2019-12-11 07:00:00 7.9 4 Noroeste 9 Nordeste 2 -- -- 92
2019-12-11 06:00:00 8.2 0 Calma 6 Norte 1.8 -- -- 97
2019-12-11 05:00:00 8.8 2 Este 14 Oeste 2.8 -- -- 92
2019-12-11 04:00:00 9.5 4 Noroeste 13 Norte 0.6 -- -- 85
2019-12-11 03:00:00 12 7 Noroeste 17 Este 0 -- -- 60
2019-12-11 02:00:00 12.2 5 Este 19 Este 0 -- -- 52
2019-12-11 01:00:00 12 3 Oeste 14 Sudeste 0 -- -- 56
2019-12-11 00:00:00 12.4 3 Noroeste 25 Sudeste 0 -- -- 55
2019-12-10 23:00:00 10.7 3 Norte 7 Sudoeste 0 -- -- 66
2019-12-10 22:00:00 9.4 2 Noroeste 7 Oeste 0 -- -- 72
2019-12-10 21:00:00 9.5 3 Nordeste 7 Noroeste 0 -- -- 68
2019-12-10 20:00:00 9.8 0 Calma 6 Nordeste 0 -- -- 67
2019-12-10 19:00:00 10.7 3 Este 7 Este 0 -- -- 65
2019-12-10 18:00:00 11.8 0 Calma 21 Sudeste 0 -- -- 66
2019-12-10 17:00:00 16.1 12 Sudeste 28 Sudeste 0 -- -- 41
2019-12-10 16:00:00 16.4 15 Sudeste 29 Sudeste 0 -- -- 39
2019-12-10 15:00:00 15.9 9 Sudeste 21 Sudeste 0 -- -- 47
2019-12-10 14:00:00 14.3 0 Calma 5 Sudoeste 0 -- -- 49
2019-12-10 13:00:00 13.9 3 Sur 9 Sur 0 -- -- 50
2019-12-10 12:00:00 11.6 5 Sur 10 Sur 0 -- -- 55
2019-12-10 11:00:00 9.9 3 Noroeste 12 Sudoeste 0 -- -- 59
2019-12-10 10:00:00 7.5 4 Sudoeste 11 Sur 0 -- -- 64
2019-12-10 09:00:00 5.4 3 Sudoeste 10 Sur 0 -- -- 71
2019-12-10 08:00:00 4.1 0 Calma 8 Sudoeste 0 -- -- 79
2019-12-10 07:00:00 3.1 0 Calma 7 Norte 0 -- -- 85
2019-12-10 06:00:00 2.2 0 Calma 7 Sudoeste 0 -- -- 90
2019-12-10 05:00:00 2.3 2 Norte 5 Nordeste 0 -- -- 91
2019-12-10 04:00:00 2.5 0 Calma 8 Nordeste 0 -- -- 91
2019-12-10 03:00:00 3.3 2 Noroeste 6 Norte 0 -- -- 92
2019-12-10 02:00:00 3.1 0 Calma 7 Sudoeste 0 -- -- 95
2019-12-10 01:00:00 3 0 Calma 4 Nordeste 0 -- -- 97
2019-12-10 00:00:00 3.7 3 Nordeste 5 Nordeste 0 -- -- 96
2019-12-09 23:00:00 5 0 Calma 5 Oeste 0 -- -- 94
2019-12-09 22:00:00 5.6 3 Noroeste 7 Oeste 0 -- -- 95
2019-12-09 21:00:00 6.4 2 Oeste 9 Sur 0 -- -- 95
2019-12-09 20:00:00 8.1 0 Calma 9 Nordeste 0 -- -- 90
2019-12-09 19:00:00 10.1 5 Nordeste 13 Este 0 -- -- 84
2019-12-09 18:00:00 11.1 3 Norte 12 Noroeste 0 -- -- 76
2019-12-09 17:00:00 11.9 5 Nordeste 10 Nordeste 0 -- -- 66
2019-12-09 16:00:00 12.7 0 Calma 7 Noroeste 0 -- -- 65
2019-12-09 15:00:00 12.8 3 Norte 14 Noroeste 0 -- -- 63
2019-12-09 14:00:00 12.5 3 Norte 15 Noroeste 0 -- -- 66
2019-12-09 13:00:00 12.8 4 Norte 17 Noroeste 0 -- -- 64
2019-12-09 12:00:00 11.8 3 Nordeste 15 Este 0 -- -- 67
2019-12-09 11:00:00 10.6 4 Norte 19 Este 0 -- -- 71
2019-12-09 10:00:00 8.8 5 Este 14 Sudoeste 0 -- -- 76
2019-12-09 09:00:00 7.7 3 Este 15 Sudoeste 0 -- -- 82
2019-12-09 08:00:00 6.6 7 Oeste 14 Nordeste 0 -- -- 81
2019-12-09 07:00:00 4.9 3 Norte 8 Sur 0 -- -- 85
2019-12-09 06:00:00 4.2 3 Noroeste 6 Nordeste 0 -- -- 82
2019-12-09 05:00:00 3.4 2 Este 8 Oeste 0 -- -- 87
2019-12-09 04:00:00 5.4 6 Noroeste 21 Nordeste 0 -- -- 73
2019-12-09 03:00:00 4.9 3 Norte 13 Oeste 0 -- -- 83
2019-12-09 02:00:00 4.2 0 Calma 17 Oeste 0 -- -- 89
2019-12-09 01:00:00 4.8 3 Noroeste 9 Oeste 0 -- -- 92
2019-12-09 00:00:00 6.2 3 Oeste 18 Sur 0 -- -- 93
2019-12-08 23:00:00 7.4 3 Oeste 14 Sudoeste 0 -- -- 95
2019-12-08 22:00:00 6.8 2 Este 9 Noroeste 0 -- -- 98
2019-12-08 21:00:00 8.9 5 Oeste 13 Noroeste 0 -- -- 100
2019-12-08 20:00:00 8.9 2 Nordeste 6 Oeste 0 -- -- 99
2019-12-08 19:00:00 9.5 0 Calma 6 Noroeste 0 -- -- 99
2019-12-08 18:00:00 10.7 0 Calma 8 Noroeste 0 -- -- 98
2019-12-08 17:00:00 11.8 4 Nordeste 12 Norte 0 -- -- 93
2019-12-08 16:00:00 12.1 4 Oeste 19 Oeste 0.4 -- -- 95
2019-12-08 15:00:00 12.5 0 Calma 6 Sudoeste 0 -- -- 100
2019-12-08 14:00:00 12 2 Noroeste 8 Nordeste 0.6 -- -- 100
2019-12-08 13:00:00 11.8 2 Norte 8 Sudeste 1.2 -- -- 98
2019-12-08 12:00:00 11.5 3 Sudeste 8 Sudoeste 0.6 -- -- 97
2019-12-08 11:00:00 10.8 4 Sur 11 Sur 2.8 -- -- 97
2019-12-08 10:00:00 11.3 4 Norte 18 Sudeste 0.4 -- -- 90
2019-12-08 09:00:00 12.4 3 Este 10 Sudoeste 0 -- -- 77
2019-12-08 08:00:00 12.2 4 Noroeste 14 Sur 0 -- -- 76
2019-12-08 07:00:00 11.9 3 Oeste 9 Sur 0 -- -- 76
2019-12-08 06:00:00 11.6 8 Sudoeste 13 Sur 0 -- -- 76
2019-12-08 05:00:00 11.1 2 Sudeste 14 Oeste 0 -- -- 77
2019-12-08 04:00:00 10.9 4 Sudeste 17 Sudeste 0 -- -- 78
2019-12-08 03:00:00 10.2 3 Oeste 14 Oeste 0 -- -- 81
2019-12-08 02:00:00 9.3 4 Noroeste 9 Noroeste 0 -- -- 86
2019-12-08 01:00:00 7.4 0 Calma 7 Este 0 -- -- 93
2019-12-08 00:00:00 7.7 0 Calma 8 Este 0 -- -- 91
2019-12-07 23:00:00 7.9 0 Calma 3 Nordeste 0 -- -- 93
2019-12-07 22:00:00 8.9 2 Noroeste 12 Noroeste 0 -- -- 89
2019-12-07 21:00:00 10.8 3 Noroeste 9 Sur 0 -- -- 80
2019-12-07 20:00:00 10.8 3 Oeste 8 Oeste 0 -- -- 81
2019-12-07 19:00:00 10.5 3 Noroeste 5 Oeste 0 -- -- 86
2019-12-07 18:00:00 10.6 0 Calma 3 Norte 0 -- -- 87
2019-12-07 17:00:00 12.5 0 Calma 8 Oeste 0 -- -- 82
2019-12-07 16:00:00 15.5 4 Sudoeste 8 Sudoeste 0 -- -- 66
2019-12-07 15:00:00 15.1 4 Oeste 9 Sudoeste 0 -- -- 67
2019-12-07 14:00:00 15.6 5 Sur 9 Sudoeste 0 -- -- 65
2019-12-07 13:00:00 13.3 0 Calma 6 Sudoeste 0 -- -- 74
2019-12-07 12:00:00 11.2 0 Calma 5 Sudeste 0 -- -- 80
2019-12-07 11:00:00 9.6 3 Sur 5 Sudoeste 0 -- -- 80
2019-12-07 10:00:00 8.2 3 Noroeste 6 Oeste 0 -- -- 80
2019-12-07 09:00:00 7.2 0 Calma 6 Norte 0 -- -- 88
2019-12-07 08:00:00 6.9 3 Noroeste 6 Norte 0 -- -- 87
2019-12-07 07:00:00 7.2 4 Noroeste 8 Noroeste 0 -- -- 81
2019-12-07 06:00:00 3.8 0 Calma 4 Oeste 0 -- -- 95
2019-12-07 05:00:00 4.3 3 Nordeste 5 Nordeste 0 -- -- 94
2019-12-07 04:00:00 4.8 0 Calma 4 Norte 0 -- -- 95
2019-12-07 03:00:00 5.6 4 Norte 9 Norte 0 -- -- 91
2019-12-07 02:00:00 4.4 2 Este 5 Nordeste 0 -- -- 97
2019-12-07 01:00:00 5.5 0 Calma 5 Sudoeste 0 -- -- 94
2019-12-07 00:00:00 5.9 3 Nordeste 6 Nordeste 0 -- -- 96
2019-12-06 23:00:00 6.7 0 Calma 5 Noroeste 0 -- -- 97
2019-12-06 22:00:00 6.8 2 Noroeste 7 Oeste 0 -- -- 98
2019-12-06 21:00:00 5.7 0 Calma 4 Este 0 -- -- 100
2019-12-06 20:00:00 6 0 Calma 4 Este 0 -- -- 98
2019-12-06 19:00:00 7.1 0 Calma 4 Sudoeste 0 -- -- 93
2019-12-06 18:00:00 9.3 0 Calma 4 Este 0 -- -- 91
2019-12-06 17:00:00 10.1 0 Calma 6 Oeste 0 -- -- 88
2019-12-06 16:00:00 10.1 0 Calma 6 Oeste 0 -- -- 87
2019-12-06 15:00:00 10.9 0 Calma 9 Oeste 0 -- -- 85
2019-12-06 14:00:00 12.5 0 Calma 10 Sudeste 0 -- -- 75
2019-12-06 13:00:00 10.2 0 Calma 5 Sur 0 -- -- 86
2019-12-06 12:00:00 9.9 3 Sudoeste 14 Noroeste 0 -- -- 87
2019-12-06 11:00:00 8.4 2 Este 5 Este 0 -- -- 90
2019-12-06 10:00:00 5.6 3 Sudeste 7 Noroeste 0 -- -- 95
2019-12-06 09:00:00 4 0 Calma 4 Nordeste 0 -- -- 100
2019-12-06 08:00:00 3.8 0 Calma 6 Nordeste 0 -- -- 98
2019-12-06 07:00:00 4.1 0 Calma 7 Sur 0 -- -- 100
2019-12-06 06:00:00 3.6 0 Calma 5 Nordeste 0 -- -- 100
2019-12-06 05:00:00 4.5 5 Norte 8 Norte 0 -- -- 100
2019-12-06 04:00:00 5.6 4 Nordeste 11 Este 0 -- -- 97
2019-12-06 03:00:00 6.6 0 Calma 4 Sur 0 -- -- 99
2019-12-06 02:00:00 6.6 0 Calma 4 Sudoeste 0 -- -- 100
2019-12-06 01:00:00 6.3 0 Calma 5 Sudoeste 0 -- -- 100
2019-12-06 00:00:00 5.9 0 Calma 4 Oeste 0 -- -- 98
2019-12-05 23:00:00 7.6 2 Oeste 4 Oeste 0 -- -- 100
2019-12-05 22:00:00 7.6 0 Calma 9 Norte 0 -- -- 100
2019-12-05 21:00:00 8 3 Norte 8 Sur 0 -- -- 99
2019-12-05 20:00:00 8.2 0 Calma 2 Este 0 -- -- 100
2019-12-05 19:00:00 8.4 0 Calma 4 Oeste 0 -- -- 99
2019-12-05 18:00:00 8.7 0 Calma 3 Nordeste 0 -- -- 98
2019-12-05 17:00:00 9 0 Calma 2 Sudeste 0 -- -- 98
2019-12-05 16:00:00 9.1 0 Calma 3 Sur 0 -- -- 98
2019-12-05 15:00:00 9.1 0 Calma 8 Oeste 0 -- -- 98
2019-12-05 14:00:00 9.2 0 Calma 6 Sudoeste 0 -- -- 99
2019-12-05 13:00:00 7.8 0 Calma 4 Nordeste 0 -- -- 100
2019-12-05 12:00:00 7.4 0 Calma 4 Sudeste 0 -- -- 100
2019-12-05 11:00:00 6.7 0 Calma 4 Nordeste 0 -- -- 100
2019-12-05 10:00:00 6 0 Calma 5 Sur 0 -- -- 100
2019-12-05 09:00:00 5.7 3 Sudoeste 8 Oeste 0.2 -- -- 100
2019-12-05 08:00:00 5.6 0 Calma 10 Noroeste 0.6 -- -- 100
2019-12-05 07:00:00 5.6 0 Calma 4 Oeste 0.6 -- -- 100
2019-12-05 06:00:00 5.5 0 Calma 6 Noroeste 1.2 -- -- 100
2019-12-05 05:00:00 5.5 0 Calma 7 Noroeste 1 -- -- 100
2019-12-05 04:00:00 5.4 2 Noroeste 6 Norte 0.8 -- -- 100
2019-12-05 03:00:00 5.2 0 Calma 3 Sudeste 0.2 -- -- 98
2019-12-05 02:00:00 5.5 0 Calma 4 Nordeste 0 -- -- 96
2019-12-05 01:00:00 5.7 2 Nordeste 4 Nordeste 0 -- -- 92
2019-12-05 00:00:00 5.7 0 Calma 5 Norte 0 -- -- 88
2019-12-04 23:00:00 5.5 4 Este 8 Este 0 -- -- 87
2019-12-04 22:00:00 5.4 2 Sur 5 Este 0 -- -- 90
2019-12-04 21:00:00 5 0 Calma 6 Oeste 0 -- -- 90
2019-12-04 20:00:00 3.7 0 Calma 5 Noroeste 0 -- -- 94
2019-12-04 19:00:00 3.9 3 Oeste 4 Nordeste 0 -- -- 93
2019-12-04 18:00:00 5.1 3 Nordeste 4 Noroeste 0 -- -- 89
2019-12-04 17:00:00 7.9 0 Calma 5 Oeste 0 -- -- 78
2019-12-04 16:00:00 9.9 4 Sudoeste 9 Sudoeste 0 -- -- 69
2019-12-04 15:00:00 9.5 5 Sudoeste 12 Sudoeste 0 -- -- 70
2019-12-04 14:00:00 7.9 3 Sur 11 Oeste 0 -- -- 79
2019-12-04 13:00:00 8.5 4 Sur 8 Sudoeste 0.2 -- -- 80
2019-12-04 12:00:00 7.2 3 Sur 6 Sudoeste 0 -- -- 86
2019-12-04 11:00:00 4.5 3 Sudeste 5 Sudeste 0 -- -- 97
2019-12-04 10:00:00 0.6 0 Calma 3 Nordeste 0 -- -- 100
2019-12-04 09:00:00 -0.1 0 Calma 5 Sudoeste 0 -- -- 100
2019-12-04 08:00:00 -0.4 0 Calma 3 Este 0 -- -- 100
2019-12-04 07:00:00 -0.3 0 Calma 4 Nordeste 0 -- -- 100
2019-12-04 06:00:00 -0.2 0 Calma 5 Norte 0 -- -- 100
2019-12-04 05:00:00 0.3 3 Noroeste 6 Norte 0 -- -- 100
2019-12-04 04:00:00 -0.1 0 Calma 6 Nordeste 0 -- -- 100
2019-12-04 03:00:00 -0.2 0 Calma 5 Nordeste 0 -- -- 100
2019-12-04 02:00:00 0.3 2 Oeste 6 Norte 0 -- -- 99
2019-12-04 01:00:00 0.1 3 Norte 5 Nordeste 0 -- -- 100
2019-12-04 00:00:00 0.4 3 Noroeste 4 Nordeste 0 -- -- 98
2019-12-03 23:00:00 1.3 0 Calma 5 Noroeste 0 -- -- 97
2019-12-03 22:00:00 3.3 3 Noroeste 5 Noroeste 0 -- -- 94
2019-12-03 21:00:00 3.9 0 Calma 5 Oeste 0 -- -- 95
2019-12-03 20:00:00 4.2 0 Calma 4 Nordeste 0 -- -- 95
2019-12-03 19:00:00 3.2 0 Calma 4 Nordeste 0 -- -- 98
2019-12-03 18:00:00 3.5 0 Calma 4 Norte 0 -- -- 91
2019-12-03 17:00:00 6.3 0 Calma 10 Oeste 0 -- -- 84
2019-12-03 16:00:00 9.5 5 Noroeste 15 Oeste 0 -- -- 68
2019-12-03 15:00:00 10.1 4 Sudeste 17 Oeste 0 -- -- 72
2019-12-03 14:00:00 8.5 9 Sudoeste 18 Oeste 0 -- -- 78
2019-12-03 13:00:00 7.9 6 Sudoeste 21 Sudoeste 0 -- -- 86
2019-12-03 12:00:00 8.8 5 Sudoeste 10 Sur 0 -- -- 81
2019-12-03 11:00:00 6.2 4 Sur 6 Sur 0 -- -- 100
2019-12-03 10:00:00 3.1 3 Nordeste 4 Norte 0 -- -- 100
2019-12-03 09:00:00 1.7 0 Calma 4 Norte 0 -- -- 100
2019-12-03 08:00:00 2.6 0 Calma 4 Nordeste 0 -- -- 100
2019-12-03 07:00:00 3.4 0 Calma 4 Norte 0 -- -- 100
2019-12-03 06:00:00 3.3 0 Calma 4 Este 0 -- -- 100
2019-12-03 05:00:00 2.6 0 Calma 4 Noroeste 0.2 -- -- 100
2019-12-03 04:00:00 1.7 0 Calma 5 Norte 0 -- -- 100
2019-12-03 03:00:00 1.7 0 Calma 5 Norte 0 -- -- 100
2019-12-03 02:00:00 1.8 0 Calma 5 Sudeste 0 -- -- 100
2019-12-03 01:00:00 2.9 3 Noroeste 9 Norte 0 -- -- 98
2019-12-03 00:00:00 4 0 Calma 10 Nordeste 0 -- -- 96
2019-12-02 23:00:00 4.3 5 Nordeste 15 Norte 0 -- -- 94
2019-12-02 22:00:00 4.7 7 Nordeste 14 Nordeste 0 -- -- 93
2019-12-02 21:00:00 4.9 2 Este 17 Oeste 0 -- -- 95
2019-12-02 20:00:00 5.6 4 Sudoeste 18 Oeste 0 -- -- 97
2019-12-02 19:00:00 5.9 5 Oeste 21 Oeste 0 -- -- 97
2019-12-02 18:00:00 6.2 8 Oeste 20 Oeste 0 -- -- 98
2019-12-02 17:00:00 6.4 7 Oeste 30 Oeste 1.6 -- -- 98
2019-12-02 16:00:00 6.8 9 Oeste 30 Oeste 1.8 -- -- 98
2019-12-02 15:00:00 7.3 10 Oeste 25 Oeste 2 -- -- 99
2019-12-02 14:00:00 7.3 12 Oeste 26 Oeste 2 -- -- 99
2019-12-02 13:00:00 7.4 9 Oeste 28 Oeste 1.8 -- -- 98
2019-12-02 12:00:00 7.4 12 Oeste 24 Oeste 3.2 -- -- 100
2019-12-02 11:00:00 7.2 7 Oeste 27 Oeste 2.2 -- -- 100
2019-12-02 10:00:00 6.3 4 Sur 14 Oeste 1.8 -- -- 100
2019-12-02 09:00:00 6.2 4 Norte 6 Nordeste 3.2 -- -- 100
2019-12-02 08:00:00 6.1 2 Nordeste 6 Norte 2 -- -- 100
2019-12-02 07:00:00 6 4 Noroeste 8 Norte 1.6 -- -- 100
2019-12-02 06:00:00 5.9 0 Calma 5 Nordeste 0.8 -- -- 100
2019-12-02 05:00:00 6 4 Norte 10 Nordeste 0.4 -- -- 99
2019-12-02 04:00:00 6.2 8 Norte 10 Norte 0 -- -- 95
2019-12-02 03:00:00 5.8 2 Norte 8 Norte 0.4 -- -- 99
2019-12-02 02:00:00 6.3 4 Norte 9 Nordeste 1.4 -- -- 97
2019-12-02 01:00:00 6.5 6 Nordeste 10 Nordeste 0.6 -- -- 96
2019-12-02 00:00:00 6.5 3 Norte 7 Nordeste 1 -- -- 99
2019-12-01 23:00:00 6.5 0 Calma 6 Noroeste 2.4 -- -- 100
2019-12-01 22:00:00 6.8 2 Oeste 13 Noroeste 6.2 -- -- 100
2019-12-01 21:00:00 6.9 3 Oeste 12 Oeste 5.6 -- -- 100
2019-12-01 20:00:00 6.8 0 Calma 6 Noroeste 2.8 -- -- 100
2019-12-01 19:00:00 7 3 Norte 6 Nordeste 3.6 -- -- 99
2019-12-01 18:00:00 7.3 3 Norte 6 Norte 2.4 -- -- 99
2019-12-01 17:00:00 7.3 4 Norte 7 Norte 3.2 -- -- 97
2019-12-01 16:00:00 8 5 Nordeste 8 Norte 1.2 -- -- 94
2019-12-01 15:00:00 8.5 3 Oeste 11 Noroeste 2.6 -- -- 95
2019-12-01 14:00:00 9.4 3 Sur 18 Oeste 2.2 -- -- 93
2019-12-01 13:00:00 10.6 0 Calma 4 Sur 0 -- -- 95
2019-12-01 12:00:00 9.7 0 Calma 5 Noroeste 0 -- -- 94
2019-12-01 11:00:00 9.1 3 Sudoeste 5 Sur 0 -- -- 94
2019-12-01 10:00:00 7.8 0 Calma 4 Norte 0.6 -- -- 97
2019-12-01 09:00:00 7.5 0 Calma 3 Nordeste 0.4 -- -- 98
2019-12-01 08:00:00 7.6 0 Calma 6 Nordeste 1.8 -- -- 97
2019-12-01 07:00:00 8.2 4 Nordeste 22 Sudeste 1.4 -- -- 91
2019-12-01 06:00:00 10.2 10 Sudeste 24 Sur 0 -- -- 73
2019-12-01 05:00:00 10.5 14 Este 27 Este 0 -- -- 67
2019-12-01 04:00:00 11 13 Este 29 Sur 0 -- -- 63
2019-12-01 03:00:00 11.2 11 Sudeste 33 Este 0 -- -- 62
2019-12-01 02:00:00 11 13 Este 36 Este 0 -- -- 61
2019-12-01 01:00:00 10.9 17 Este 31 Sudeste 0 -- -- 62
2019-12-01 00:00:00 10.3 12 Sudeste 29 Sudeste 0 -- -- 65
2019-11-30 23:00:00 9 12 Sudeste 30 Sudeste 0 -- -- 71
2019-11-30 22:00:00 7.4 6 Este 22 Este 0 -- -- 85
2019-11-30 21:00:00 6.8 3 Noroeste 9 Sudoeste 0 -- -- 99
2019-11-30 20:00:00 6.6 0 Calma 5 Nordeste 0 -- -- 99
2019-11-30 19:00:00 7.3 2 Nordeste 5 Norte 0 -- -- 97
2019-11-30 18:00:00 9.8 0 Calma 6 Este 0.2 -- -- 92
2019-11-30 17:00:00 10.6 3 Este 5 Nordeste 0 -- -- 92
2019-11-30 16:00:00 12.4 2 Norte 10 Sudoeste 0 -- -- 80
2019-11-30 15:00:00 13 4 Sur 10 Sudoeste 0 -- -- 86
2019-11-30 14:00:00 10.8 4 Noroeste 10 Sur 0 -- -- 93
2019-11-30 13:00:00 10.4 2 Norte 16 Norte 0 -- -- 90
2019-11-30 12:00:00 10.4 0 Calma 7 Noroeste 0.6 -- -- 97
2019-11-30 11:00:00 10.4 0 Calma 7 Nordeste 2.8 -- -- 95
2019-11-30 10:00:00 10.8 5 Norte 14 Nordeste 0.8 -- -- 92
2019-11-30 09:00:00 11.8 3 Sudeste 18 Este 0 -- -- 91
2019-11-30 08:00:00 14.1 4 Noroeste 25 Este 0.4 -- -- 84
2019-11-30 07:00:00 16.3 14 Sudeste 36 Sur 0 -- -- 68
2019-11-30 06:00:00 17.2 20 Sur 54 Sur 0 -- -- 62
2019-11-30 05:00:00 16.8 25 Sudeste 45 Sudeste 0 -- -- 62
2019-11-30 04:00:00 16.5 23 Sudeste 53 Sur 0 -- -- 63
2019-11-30 03:00:00 16 21 Sudeste 46 Sudeste 0 -- -- 62
2019-11-30 02:00:00 16.2 24 Sudeste 48 Sudeste 0 -- -- 59
2019-11-30 01:00:00 15.3 17 Sudeste 39 Este 0 -- -- 58
2019-11-30 00:00:00 14.5 18 Este 35 Este 0 -- -- 62
2019-11-29 23:00:00 7.6 3 Nordeste 7 Norte 0 -- -- 97
2019-11-29 22:00:00 8 2 Norte 5 Nordeste 0 -- -- 99
2019-11-29 21:00:00 7.3 0 Calma 4 Nordeste 0 -- -- 98
2019-11-29 20:00:00 7.6 0 Calma 4 Nordeste 0 -- -- 97
2019-11-29 19:00:00 8.3 3 Nordeste 5 Nordeste 0 -- -- 95
2019-11-29 18:00:00 9.9 2 Nordeste 4 Sudoeste 0 -- -- 91
2019-11-29 17:00:00 13.3 0 Calma 8 Sudeste 0 -- -- 81
2019-11-29 16:00:00 16.4 5 Sur 13 Sur 0 -- -- 70
2019-11-29 15:00:00 17.1 8 Sur 15 Sudoeste 0 -- -- 71
2019-11-29 14:00:00 15.9 7 Sudoeste 12 Sudoeste 0 -- -- 76
2019-11-29 13:00:00 14.9 5 Oeste 9 Sur 0 -- -- 75
2019-11-29 12:00:00 13.7 4 Sur 8 Sudoeste 0 -- -- 80
2019-11-29 11:00:00 11.9 5 Sur 12 Sur 0 -- -- 87
2019-11-29 10:00:00 8.8 3 Sudoeste 16 Sur 0 -- -- 98
2019-11-29 09:00:00 8.1 2 Noroeste 10 Sur 0 -- -- 97
2019-11-29 08:00:00 9.2 0 Calma 7 Sudeste 0 -- -- 100
2019-11-29 07:00:00 8.6 0 Calma 6 Noroeste 0 -- -- 100
2019-11-29 06:00:00 9 3 Noroeste 6 Noroeste 0 -- -- 100
2019-11-29 05:00:00 9.4 0 Calma 5 Sudoeste 0 -- -- 100
2019-11-29 04:00:00 8.6 0 Calma 7 Norte 0 -- -- 100
2019-11-29 03:00:00 8.7 2 Noroeste 4 Norte 0 -- -- 99
2019-11-29 02:00:00 10.7 0 Calma 9 Sudoeste 0.2 -- -- 100
2019-11-29 01:00:00 10.9 3 Noroeste 5 Oeste 0.4 -- -- 100
2019-11-29 00:00:00 10.9 0 Calma 6 Sudeste 1.2 -- -- 100
2019-11-28 23:00:00 10.9 0 Calma 5 Nordeste 2 -- -- 100
2019-11-28 22:00:00 11.1 3 Norte 6 Norte 0.4 -- -- 98
2019-11-28 21:00:00 11.3 2 Nordeste 27 Sudeste 1.4 -- -- 96
2019-11-28 20:00:00 12.4 12 Sudeste 28 Sudeste 0.6 -- -- 86
2019-11-28 19:00:00 12 8 Sur 31 Sudeste 1 -- -- 89
2019-11-28 18:00:00 11 12 Sudeste 33 Sudeste 0.8 -- -- 96
2019-11-28 17:00:00 10.6 0 Calma 3 Sudeste 0.6 -- -- 99
2019-11-28 16:00:00 10.7 0 Calma 6 Oeste 2 -- -- 98
2019-11-28 15:00:00 10.9 3 Nordeste 6 Nordeste 1.4 -- -- 95
2019-11-28 14:00:00 11.4 0 Calma 10 Noroeste 0.4 -- -- 94
2019-11-28 13:00:00 11.7 4 Sudoeste 10 Oeste 0 -- -- 89
2019-11-28 12:00:00 10.9 0 Calma 5 Sudoeste 0 -- -- 89
2019-11-28 11:00:00 10.3 0 Calma 5 Sudoeste 0 -- -- 89
2019-11-28 10:00:00 9.4 0 Calma 6 Nordeste 0 -- -- 90
2019-11-28 09:00:00 8.8 2 Oeste 6 Nordeste 0 -- -- 90
2019-11-28 08:00:00 8.3 0 Calma 6 Sudoeste 0 -- -- 91
2019-11-28 07:00:00 8.7 0 Calma 5 Este 0 -- -- 89
2019-11-28 06:00:00 8.5 0 Calma 5 Norte 0 -- -- 89
2019-11-28 05:00:00 8.1 0 Calma 6 Nordeste 0 -- -- 90
2019-11-28 04:00:00 7.9 2 Noroeste 8 Sudoeste 0 -- -- 87
2019-11-28 03:00:00 9 2 Nordeste 12 Noroeste 0 -- -- 84
2019-11-28 02:00:00 11.1 2 Nordeste 18 Sudeste 0 -- -- 75
2019-11-28 01:00:00 11.4 4 Sudoeste 23 Sudeste 0 -- -- 75
2019-11-28 00:00:00 9.8 5 Sudeste 15 Noroeste 0 -- -- 89
2019-11-27 23:00:00 9.7 2 Nordeste 10 Nordeste 0 -- -- 90
2019-11-27 22:00:00 9.8 3 Norte 11 Nordeste 0 -- -- 91
2019-11-27 21:00:00 10.4 3 Sudoeste 13 Noroeste 0 -- -- 86
2019-11-27 20:00:00 10.4 4 Noroeste 9 Noroeste 0 -- -- 83
2019-11-27 19:00:00 10.3 0 Calma 9 Sur 0 -- -- 86
2019-11-27 18:00:00 10.4 4 Sudeste 10 Sur 0.2 -- -- 87
2019-11-27 17:00:00 11.3 2 Norte 10 Oeste 0 -- -- 84
2019-11-27 16:00:00 12.2 5 Sudeste 10 Sudeste 0 -- -- 76
2019-11-27 15:00:00 13 3 Nordeste 11 Este 0 -- -- 74
2019-11-27 14:00:00 13.8 5 Sudeste 31 Sudeste 0 -- -- 67
2019-11-27 06:00:00 -- -- -- -- -- -- -- -- --
2019-11-27 05:00:00 12.6 13 Sudeste 32 Este 0 -- -- 57
2019-11-27 04:00:00 12.8 9 Sur 30 Sur 0 -- -- 57
2019-11-27 03:00:00 13.3 14 Sudeste 38 Sudeste 0 -- -- 53
2019-11-27 02:00:00 13.4 21 Sudeste 44 Este 0 -- -- 52
2019-11-27 01:00:00 13.2 14 Sudeste 38 Este 0 -- -- 52
2019-11-27 00:00:00 10.6 5 Oeste 18 Sur 0 -- -- 74
2019-11-26 23:00:00 10.8 6 Norte 17 Nordeste 0 -- -- 75
2019-11-26 22:00:00 10.6 4 Norte 15 Oeste 0 -- -- 83
2019-11-26 21:00:00 13 8 Sudeste 37 Sudeste 0.2 -- -- 68
2019-11-26 20:00:00 14.5 17 Sudeste 44 Sudeste 0.2 -- -- 65
2019-11-26 19:00:00 17.6 19 Sudeste 44 Sudeste 0 -- -- 50
2019-11-26 18:00:00 18.2 19 Sudeste 50 Sudeste 0 -- -- 44
2019-11-26 17:00:00 18.5 19 Sudeste 46 Sudoeste 0 -- -- 44
2019-11-26 16:00:00 19 16 Sudeste 48 Sur 0 -- -- 44
2019-11-26 15:00:00 19.2 14 Sudeste 35 Sur 0 -- -- 45
2019-11-26 14:00:00 19.6 17 Sudeste 45 Este 0 -- -- 47
2019-11-26 13:00:00 19.3 12 Sudeste 38 Sudeste 0 -- -- 53
2019-11-26 12:00:00 17.8 12 Sudeste 35 Este 0 -- -- 59
2019-11-26 11:00:00 17.3 12 Sudeste 31 Este 0 -- -- 60
2019-11-26 10:00:00 16.7 14 Sudeste 53 Sudeste 0 -- -- 61
2019-11-26 09:00:00 16.3 24 Sur 45 Sur 0 -- -- 62
2019-11-26 08:00:00 16 17 Sudeste 46 Sudeste 0 -- -- 64
2019-11-26 07:00:00 15.8 22 Sudeste 40 Este 0 -- -- 63
2019-11-26 06:00:00 15.8 18 Sudeste 54 Este 0 -- -- 61
2019-11-26 05:00:00 16.3 19 Sudeste 52 Sudeste 0 -- -- 59
2019-11-26 04:00:00 16.8 21 Sudeste 49 Sur 0 -- -- 58
2019-11-26 03:00:00 16.8 26 Sudeste 54 Este 0 -- -- 54
2019-11-26 02:00:00 16.3 30 Sudeste 56 Sudeste 0 -- -- 52
2019-11-26 01:00:00 15.7 21 Sudeste 45 Sudeste 0 -- -- 49
2019-11-26 00:00:00 15.2 22 Sudeste 54 Sudeste 0 -- -- 54
2019-11-25 23:00:00 12.3 14 Sudeste 35 Sudeste 0 -- -- 69
2019-11-25 22:00:00 8.4 3 Norte 8 Nordeste 0 -- -- 100
2019-11-25 21:00:00 8.4 0 Calma 4 Noroeste 0 -- -- 98
2019-11-25 20:00:00 9.2 0 Calma 3 Norte 0 -- -- 96
2019-11-25 19:00:00 10.2 2 Nordeste 5 Nordeste 0 -- -- 96
2019-11-25 18:00:00 11.5 3 Nordeste 6 Este 0 -- -- 92
2019-11-25 17:00:00 13.4 0 Calma 11 Noroeste 0 -- -- 87
2019-11-25 16:00:00 14.4 4 Sudoeste 14 Oeste 0 -- -- 82
2019-11-25 15:00:00 15.8 5 Sudoeste 17 Oeste 0 -- -- 74
2019-11-25 14:00:00 16.5 4 Sur 14 Sudoeste 0 -- -- 67
2019-11-25 13:00:00 16.4 5 Sur 9 Sur 0 -- -- 67
2019-11-25 12:00:00 14.3 3 Sudeste 8 Sudoeste 0 -- -- 73
2019-11-25 11:00:00 13.1 3 Sudeste 5 Sur 0 -- -- 75
2019-11-25 10:00:00 10.6 0 Calma 6 Noroeste 0 -- -- 83
2019-11-25 09:00:00 8.7 2 Noroeste 9 Noroeste 0 -- -- 87
2019-11-25 08:00:00 8.3 2 Norte 6 Oeste 0 -- -- 87
2019-11-25 07:00:00 10.1 4 Oeste 15 Sudeste 0 -- -- 80
2019-11-25 06:00:00 10.5 3 Nordeste 14 Sudeste 0 -- -- 79
2019-11-25 05:00:00 9.4 0 Calma 7 Sudoeste 0 -- -- 82
2019-11-25 04:00:00 13.3 6 Noroeste 30 Este 0 -- -- 67
2019-11-25 03:00:00 14.2 13 Sudeste 33 Sudeste 0 -- -- 62
2019-11-25 02:00:00 14.3 17 Sudeste 43 Este 0 -- -- 60
2019-11-25 01:00:00 14.2 16 Sudeste 45 Este 0 -- -- 61
2019-11-25 00:00:00 13.9 18 Este 37 Este 0 -- -- 62
2019-11-24 23:00:00 13.3 15 Sudeste 51 Sudeste 0 -- -- 63
2019-11-24 22:00:00 13.4 24 Sudeste 49 Sur 0 -- -- 62
2019-11-24 21:00:00 12.9 18 Sudeste 53 Sur 0 -- -- 63
2019-11-24 20:00:00 12.5 26 Sudeste 60 Este 0.2 -- -- 65
2019-11-24 19:00:00 12.7 25 Sudeste 58 Sudeste 0 -- -- 62
2019-11-24 18:00:00 12.6 25 Sudeste 56 Sur 0 -- -- 62
2019-11-24 17:00:00 11.5 26 Sudeste 57 Sudeste 0 -- -- 68
2019-11-24 16:00:00 13.2 25 Sudeste 48 Sudeste 0 -- -- 56
2019-11-24 15:00:00 13.2 17 Sudeste 39 Este 0 -- -- 55
2019-11-24 14:00:00 12.2 13 Sudeste 31 Sudeste 0 -- -- 57
2019-11-24 13:00:00 11.8 19 Sudeste 40 Este 0 -- -- 56
2019-11-24 12:00:00 10.4 11 Sudeste 25 Sudeste 0 -- -- 67
2019-11-24 11:00:00 9.2 2 Oeste 12 Sur 0 -- -- 83
2019-11-24 10:00:00 7.8 10 Sur 24 Sur 0 -- -- 86
2019-11-24 09:00:00 6.9 2 Oeste 14 Sur 0 -- -- 88
2019-11-24 08:00:00 7.3 2 Sudeste 12 Sudoeste 0 -- -- 88
2019-11-24 07:00:00 7.6 4 Norte 12 Sudeste 0 -- -- 88
2019-11-24 06:00:00 7.9 4 Nordeste 11 Nordeste 0 -- -- 86
2019-11-24 05:00:00 7.9 3 Este 13 Noroeste 0 -- -- 85
2019-11-24 04:00:00 8.9 6 Sudoeste 17 Oeste 0 -- -- 77
2019-11-24 03:00:00 8.8 5 Noroeste 17 Norte 0 -- -- 80
2019-11-24 02:00:00 8.7 4 Nordeste 15 Norte 0 -- -- 82
2019-11-24 01:00:00 9 5 Norte 17 Sudoeste 0 -- -- 77
2019-11-24 00:00:00 8.5 5 Nordeste 19 Nordeste 0 -- -- 82
2019-11-23 23:00:00 8.5 4 Norte 18 Noroeste 0 -- -- 82
2019-11-23 22:00:00 7 5 Nordeste 13 Nordeste 0.2 -- -- 94
2019-11-23 21:00:00 7.2 3 Norte 14 Noroeste 0.4 -- -- 94
2019-11-23 20:00:00 7.3 6 Norte 14 Oeste 0 -- -- 92
2019-11-23 19:00:00 7.3 3 Nordeste 17 Este 0.2 -- -- 93
2019-11-23 18:00:00 7.3 9 Este 19 Este 0.6 -- -- 92
2019-11-23 17:00:00 7.9 5 Norte 23 Noroeste 1.2 -- -- 86
2019-11-23 16:00:00 8.1 5 Nordeste 15 Norte 2 -- -- 89
2019-11-23 15:00:00 8.2 8 Norte 20 Norte 2.8 -- -- 89
2019-11-23 14:00:00 8.6 7 Norte 19 Nordeste 0.4 -- -- 88
2019-11-23 13:00:00 8.6 3 Este 23 Oeste 1.2 -- -- 92
2019-11-23 12:00:00 8.3 5 Norte 18 Oeste 1.2 -- -- 88
2019-11-23 11:00:00 8.1 5 Este 17 Norte 0.6 -- -- 89
2019-11-23 10:00:00 7.3 5 Sudoeste 24 Oeste 1.6 -- -- 91
2019-11-23 09:00:00 7.6 4 Nordeste 31 Sudoeste 0 -- -- 85
2019-11-23 08:00:00 7.2 8 Nordeste 28 Sudoeste 1 -- -- 85
2019-11-23 07:00:00 7.3 7 Nordeste 29 Oeste 0.4 -- -- 85
2019-11-23 06:00:00 7.7 6 Este 41 Oeste 4.4 -- -- 90
2019-11-23 05:00:00 8.4 8 Este 30 Oeste 10.4 -- -- 91
2019-11-23 04:00:00 8.6 6 Este 28 Sudoeste 9.2 -- -- 93
2019-11-23 03:00:00 8 6 Nordeste 20 Sur 5.4 -- -- 89
2019-11-23 02:00:00 8.4 5 Nordeste 17 Sur 3 -- -- 88
2019-11-23 01:00:00 8.7 4 Nordeste 14 Sudeste 0.6 -- -- 93
2019-11-23 00:00:00 9.7 6 Sudeste 31 Sur 0.8 -- -- 83
2019-11-22 23:00:00 10.8 12 Sudeste 39 Este 0.2 -- -- 75
2019-11-22 22:00:00 12.1 19 Sudeste 41 Sur 0 -- -- 60
2019-11-22 21:00:00 11.9 17 Sudeste 56 Sudeste 0 -- -- 66
2019-11-22 20:00:00 13.2 20 Sudeste 47 Este 0 -- -- 54
2019-11-22 19:00:00 13.4 14 Sudeste 36 Sudeste 0 -- -- 52
2019-11-22 18:00:00 14.2 16 Sudeste 38 Este 0 -- -- 49
2019-11-22 17:00:00 14.2 7 Sudeste 28 Sudoeste 0 -- -- 59
2019-11-22 16:00:00 16.7 12 Sudeste 31 Sur 0 -- -- 54
2019-11-22 15:00:00 16.2 13 Sudeste 39 Sudeste 0 -- -- 62
2019-11-22 14:00:00 17.3 18 Sudeste 54 Sur 0 -- -- 57
2019-11-22 13:00:00 15.6 28 Sudeste 79 Sudeste 0 -- -- 57
2019-11-22 12:00:00 12.4 28 Sudeste 70 Este 0.2 -- -- 69
2019-11-22 11:00:00 12.6 27 Sudeste 87 Sur 0 -- -- 61
2019-11-22 10:00:00 13.3 35 Sudeste 77 Sudeste 0 -- -- 55
2019-11-22 09:00:00 11.6 38 Sudeste 77 Sudeste 0.2 -- -- 59
2019-11-22 08:00:00 10.6 37 Sudeste 73 Sur 0.2 -- -- 68
2019-11-22 07:00:00 11.8 26 Sudeste 60 Sur 0 -- -- 58
2019-11-22 06:00:00 11.3 22 Sudeste 55 Sur 0 -- -- 59
2019-11-22 05:00:00 11.5 24 Sudeste 59 Sur 0 -- -- 56
2019-11-22 04:00:00 11.8 21 Sudeste 43 Este 0 -- -- 53
2019-11-22 03:00:00 11.4 15 Sudeste 43 Este 0 -- -- 54
2019-11-22 02:00:00 10.7 12 Sudeste 37 Este 0 -- -- 54
2019-11-22 01:00:00 11.2 16 Sudeste 33 Este 0 -- -- 51
2019-11-22 00:00:00 11.2 14 Este 33 Este 0 -- -- 54
2019-11-21 23:00:00 10.7 9 Sudeste 37 Este 0 -- -- 55
2019-11-21 22:00:00 10.2 9 Este 29 Sudeste 0 -- -- 55
2019-11-21 21:00:00 10.4 13 Este 27 Este 0 -- -- 52
2019-11-21 20:00:00 9.7 9 Este 23 Este 0 -- -- 56
2019-11-21 19:00:00 8.4 4 Este 22 Sudeste 0 -- -- 64
2019-11-21 18:00:00 10.3 10 Sudeste 21 Sudeste 0 -- -- 53
2019-11-21 17:00:00 11.2 9 Sudeste 23 Sudeste 0 -- -- 51
2019-11-21 16:00:00 14.5 12 Sudeste 28 Sudeste 0 -- -- 41
2019-11-21 15:00:00 15 15 Sudeste 26 Sudeste 0 -- -- 46
2019-11-21 14:00:00 14.8 16 Sudeste 28 Sudeste 0 -- -- 43
2019-11-21 13:00:00 15 12 Sur 28 Sur 0 -- -- 45
2019-11-21 12:00:00 13.3 9 Sur 25 Este 0 -- -- 54
2019-11-21 11:00:00 9.6 5 Sudoeste 11 Sur 0 -- -- 82
2019-11-21 10:00:00 6.2 2 Sudeste 5 Sudoeste 0 -- -- 98
2019-11-21 09:00:00 4.9 3 Norte 6 Norte 0 -- -- 96
2019-11-21 08:00:00 5.7 2 Norte 13 Sudeste 0 -- -- 93
2019-11-21 07:00:00 7 6 Este 14 Sudeste 0.2 -- -- 89
2019-11-21 06:00:00 6.2 2 Norte 9 Oeste 0 -- -- 90
2019-11-21 05:00:00 7 3 Norte 17 Este 0 -- -- 84
2019-11-21 04:00:00 8 3 Sur 28 Sudeste 0 -- -- 74
2019-11-21 03:00:00 9.9 12 Sudeste 25 Este 0 -- -- 65
2019-11-21 02:00:00 9 8 Este 22 Sudeste 0 -- -- 69
2019-11-21 01:00:00 10 9 Este 28 Este 0 -- -- 64
2019-11-21 00:00:00 10.3 15 Este 38 Este 0 -- -- 64
2019-11-20 23:00:00 10 9 Este 24 Nordeste 0 -- -- 65
2019-11-20 22:00:00 10.7 7 Sudeste 32 Este 0 -- -- 63
2019-11-20 21:00:00 10.8 11 Este 26 Sudeste 0 -- -- 61
2019-11-20 20:00:00 10.1 12 Sudeste 35 Este 0 -- -- 63
2019-11-20 19:00:00 10.4 13 Sudeste 33 Nordeste 0 -- -- 62
2019-11-20 18:00:00 10.9 18 Sudeste 35 Este 0 -- -- 62
2019-11-20 17:00:00 11.1 9 Este 36 Este 0 -- -- 63
2019-11-20 16:00:00 11.5 18 Sudeste 32 Sudeste 0 -- -- 60
2019-11-20 15:00:00 11.5 12 Sudeste 28 Sudeste 0 -- -- 63
2019-11-20 14:00:00 11.4 9 Sudeste 34 Sudeste 0 -- -- 63
2019-11-20 13:00:00 11.9 12 Sudeste 42 Este 0 -- -- 60
2019-11-20 12:00:00 11.5 22 Sudeste 43 Sudeste 0 -- -- 61
2019-11-20 11:00:00 11.2 19 Este 41 Este 0 -- -- 62
2019-11-20 10:00:00 11.5 18 Este 36 Sudeste 0 -- -- 61
2019-11-20 09:00:00 11.1 18 Este 36 Sudeste 0 -- -- 63
2019-11-20 08:00:00 10.9 12 Este 33 Sudeste 0 -- -- 65
2019-11-20 07:00:00 11.1 13 Sudeste 32 Sudeste 0 -- -- 64
2019-11-20 06:00:00 11 13 Sudeste 34 Sur 0 -- -- 65
2019-11-20 05:00:00 10.7 17 Sudeste 36 Sur 0 -- -- 64
2019-11-20 04:00:00 10.5 15 Sudeste 38 Sudeste 0 -- -- 65
2019-11-20 03:00:00 10.4 16 Sudeste 42 Sudeste 0 -- -- 65
2019-11-20 02:00:00 10.2 17 Sudeste 39 Este 0 -- -- 66
2019-11-20 01:00:00 9.7 14 Sudeste 35 Sudeste 0 -- -- 68
2019-11-20 00:00:00 9.2 15 Sudeste 34 Este 0 -- -- 73
2019-11-19 23:00:00 9.4 8 Sudeste 28 Sudeste 0 -- -- 63
2019-11-19 22:00:00 9 11 Sudeste 26 Sudeste 0 -- -- 63
2019-11-19 21:00:00 8.2 7 Sudeste 15 Sudeste 0 -- -- 67
2019-11-19 20:00:00 8.8 6 Sur 25 Sudeste 0 -- -- 64
2019-11-19 19:00:00 9.5 9 Sudeste 29 Sudeste 0 -- -- 57
2019-11-19 18:00:00 9.7 10 Sudeste 29 Sudeste 0 -- -- 55
2019-11-19 17:00:00 10.5 13 Sudeste 34 Sudeste 0 -- -- 51
2019-11-19 16:00:00 11.5 13 Sudeste 37 Sudeste 0 -- -- 53
2019-11-19 15:00:00 11.8 12 Sudeste 33 Este 0 -- -- 52
2019-11-19 14:00:00 11.8 15 Sudeste 33 Sudeste 0 -- -- 54
2019-11-19 13:00:00 10.8 7 Sudeste 19 Sudeste 0 -- -- 66
2019-11-19 12:00:00 9.1 2 Sudoeste 7 Sur 0 -- -- 85
2019-11-19 11:00:00 5.7 3 Sudoeste 5 Oeste 0 -- -- 90
2019-11-19 10:00:00 4 2 Nordeste 6 Nordeste 0 -- -- 98
2019-11-19 09:00:00 2.9 2 Nordeste 5 Noroeste 0 -- -- 99
2019-11-19 08:00:00 2.9 0 Calma 5 Nordeste 0 -- -- 99
2019-11-19 07:00:00 2.5 2 Nordeste 6 Nordeste 0 -- -- 100
2019-11-19 06:00:00 2.4 3 Nordeste 5 Nordeste 0 -- -- 100
2019-11-19 05:00:00 1.8 3 Nordeste 5 Nordeste 0 -- -- 100
2019-11-19 04:00:00 2.1 0 Calma 8 Este 0 -- -- 100
2019-11-19 03:00:00 2.4 0 Calma 6 Nordeste 0 -- -- 100
2019-11-19 02:00:00 2.8 2 Noroeste 6 Sur 0 -- -- 100
2019-11-19 01:00:00 3.7 3 Nordeste 6 Nordeste 0 -- -- 100
2019-11-19 00:00:00 5.2 0 Calma 6 Noroeste 0 -- -- 100
2019-11-18 23:00:00 5.2 2 Norte 6 Noroeste 0 -- -- 100
2019-11-18 22:00:00 5.8 2 Oeste 5 Sudoeste 0 -- -- 100
2019-11-18 21:00:00 5.6 2 Nordeste 7 Noroeste 0 -- -- 100
2019-11-18 20:00:00 6 0 Calma 5 Este 0 -- -- 100
2019-11-18 19:00:00 6.6 3 Nordeste 5 Oeste 0 -- -- 99
2019-11-18 18:00:00 7.1 0 Calma 4 Oeste 0 -- -- 98
2019-11-18 17:00:00 7.2 0 Calma 7 Noroeste 0 -- -- 97
2019-11-18 16:00:00 7.4 0 Calma 10 Sudoeste 0 -- -- 94
2019-11-18 15:00:00 7.8 5 Sudoeste 10 Sudoeste 0 -- -- 97
2019-11-18 14:00:00 6.2 2 Sudeste 4 Sur 0 -- -- 100
2019-11-18 13:00:00 6.1 0 Calma 4 Sudoeste 0 -- -- 100
2019-11-18 12:00:00 5.6 2 Oeste 9 Sudoeste 0 -- -- 98
2019-11-18 11:00:00 5.5 2 Sur 9 Sudeste 0 -- -- 99
2019-11-18 10:00:00 5.3 3 Noroeste 8 Sudoeste 0 -- -- 100
2019-11-18 09:00:00 5.3 0 Calma 9 Sur 0 -- -- 100
2019-11-18 08:00:00 5.5 3 Este 8 Este 0 -- -- 100
2019-11-18 07:00:00 5.6 3 Oeste 6 Noroeste 0 -- -- 100
2019-11-18 06:00:00 5.7 0 Calma 5 Nordeste 0 -- -- 100
2019-11-18 05:00:00 6 0 Calma 5 Nordeste 0 -- -- 100
2019-11-18 04:00:00 6.2 3 Este 9 Nordeste 0 -- -- 99
2019-11-18 03:00:00 6.2 2 Noroeste 7 Norte 0 -- -- 100
2019-11-18 02:00:00 6 2 Nordeste 4 Nordeste 0 -- -- 100
2019-11-18 01:00:00 6 0 Calma 8 Noroeste 0 -- -- 100
2019-11-18 00:00:00 5.8 0 Calma 9 Oeste 0 -- -- 100
2019-11-17 23:00:00 5.9 3 Norte 8 Nordeste 0 -- -- 100
2019-11-17 22:00:00 5.7 0 Calma 6 Norte 0 -- -- 98
2019-11-17 21:00:00 5.8 3 Nordeste 10 Este 0 -- -- 98
2019-11-17 20:00:00 6.2 3 Este 12 Sudeste 0 -- -- 98
2019-11-17 19:00:00 6.8 2 Norte 10 Norte 0 -- -- 96
2019-11-17 18:00:00 7.8 6 Nordeste 17 Sudoeste 0 -- -- 87
2019-11-17 17:00:00 9.4 5 Sudeste 13 Sur 0 -- -- 78
2019-11-17 16:00:00 9.3 4 Norte 9 Oeste 0 -- -- 88
2019-11-17 15:00:00 9 3 Norte 19 Noroeste 0 -- -- 89
2019-11-17 14:00:00 8.8 3 Sudoeste 30 Sudoeste 0 -- -- 88
2019-11-17 13:00:00 9.9 3 Noroeste 13 Norte 0 -- -- 78
2019-11-17 12:00:00 9.6 3 Norte 14 Este 0 -- -- 90
2019-11-17 11:00:00 7.6 0 Calma 11 Oeste 0 -- -- 100
2019-11-17 10:00:00 7.5 4 Oeste 10 Noroeste 0 -- -- 98
2019-11-17 09:00:00 7.2 4 Noroeste 23 Sur 0 -- -- 98
2019-11-17 08:00:00 7.3 8 Sur 30 Sudeste 0 -- -- 97
2019-11-17 07:00:00 7.3 5 Sudeste 23 Sur 0 -- -- 94
2019-11-17 06:00:00 7.1 7 Sur 15 Sudeste 0 -- -- 91
2019-11-17 05:00:00 6.8 3 Noroeste 13 Sur 0 -- -- 90
2019-11-17 04:00:00 6.3 4 Sur 18 Sur 0 -- -- 93
2019-11-17 03:00:00 6.2 5 Sudoeste 17 Sur 0 -- -- 92
2019-11-17 02:00:00 6.2 3 Oeste 22 Sudeste 0 -- -- 95
2019-11-17 01:00:00 6.9 4 Sudeste 21 Sur 0 -- -- 91
2019-11-17 00:00:00 6.9 9 Sur 23 Sur 0 -- -- 82
2019-11-16 23:00:00 6.3 6 Sudeste 17 Sur 0 -- -- 88
2019-11-16 22:00:00 6.2 4 Noroeste 13 Sudeste 0 -- -- 85
2019-11-16 21:00:00 6 3 Sudoeste 12 Nordeste 0 -- -- 87
2019-11-16 20:00:00 6 5 Nordeste 14 Sudoeste 0 -- -- 87
2019-11-16 19:00:00 6.4 2 Oeste 9 Sur 0 -- -- 89
2019-11-16 18:00:00 6.7 3 Sur 9 Noroeste 0 -- -- 85
2019-11-16 17:00:00 7.9 4 Nordeste 17 Sudeste 0 -- -- 78
2019-11-16 16:00:00 9.2 4 Sudeste 23 Sudoeste 0 -- -- 67
2019-11-16 15:00:00 7.7 5 Nordeste 12 Nordeste 0.2 -- -- 86
2019-11-16 14:00:00 8.2 3 Nordeste 13 Norte 0 -- -- 84
2019-11-16 13:00:00 8.4 6 Norte 12 Nordeste 0 -- -- 76
2019-11-16 12:00:00 8.8 4 Noroeste 19 Norte 0.2 -- -- 80
2019-11-16 11:00:00 7.1 5 Este 11 Oeste 0 -- -- 91
2019-11-16 10:00:00 6.1 4 Norte 15 Norte 0 -- -- 95
2019-11-16 09:00:00 4.7 5 Norte 9 Oeste 0 -- -- 100
2019-11-16 08:00:00 4.2 3 Este 9 Nordeste 0 -- -- 100
2019-11-16 07:00:00 3.8 2 Noroeste 10 Nordeste 0 -- -- 100
2019-11-16 06:00:00 3.4 2 Noroeste 8 Oeste 0 -- -- 100
2019-11-16 05:00:00 2.9 0 Calma 6 Sur 0 -- -- 100
2019-11-16 04:00:00 3.2 3 Noroeste 8 Sudeste 0.8 -- -- 100
2019-11-16 03:00:00 3 6 Norte 11 Oeste 0.6 -- -- 100
2019-11-16 02:00:00 3.1 2 Sur 8 Sudoeste 1 -- -- 100
2019-11-16 01:00:00 3 -- -- -- -- -- -- -- --
2019-11-16 00:00:00 3 4 Sur 12 Sur 2 -- -- 100
2019-11-15 23:00:00 3.1 0 Calma 15 Sudeste 1.2 -- -- 99
2019-11-15 22:00:00 3.3 3 Nordeste 11 Norte 1.6 -- -- 100
2019-11-15 21:00:00 3 2 Este 11 Sudoeste 0.8 -- -- 100
2019-11-15 20:00:00 2.9 3 Este 10 Sudeste 1.6 -- -- 100
2019-11-15 19:00:00 2.9 3 Sudeste 18 Sudoeste 2.6 -- -- 100
2019-11-15 18:00:00 3 4 Oeste 13 Sudeste 2.4 -- -- 100
2019-11-15 17:00:00 3.3 3 Sur 13 Este 2.8 -- -- 99
2019-11-15 16:00:00 3.4 5 Este 14 Sudeste 1.4 -- -- 98
2019-11-15 15:00:00 3.5 4 Nordeste 12 Sur 2.6 -- -- 98
2019-11-15 14:00:00 3.5 6 Sudeste 16 Sudeste 2.2 -- -- 99
2019-11-15 13:00:00 3.4 3 Sudeste 21 Sur 2 -- -- 99
2019-11-15 12:00:00 3.9 4 Este 15 Norte 2.6 -- -- 98
2019-11-15 11:00:00 4.3 3 Nordeste 9 Este 3.8 -- -- 98
2019-11-15 10:00:00 4.6 4 Nordeste 19 Sudoeste 3 -- -- 94
2019-11-15 09:00:00 5.3 10 Sur 27 Oeste 2.2 -- -- 93
2019-11-15 08:00:00 5.7 8 Sur 26 Sur 0.2 -- -- 93
2019-11-15 07:00:00 3.3 4 Norte 12 Nordeste 4.4 -- -- 100
2019-11-15 06:00:00 3 0 Calma 9 Sudeste 2.2 -- -- 100
2019-11-15 05:00:00 3.1 4 Noroeste 10 Sur 3.6 -- -- 99
2019-11-15 04:00:00 3.8 3 Sudeste 14 Norte 4 -- -- 100
2019-11-15 03:00:00 3.6 4 Sudeste 11 Sudeste 3.2 -- -- 100
2019-11-15 02:00:00 3.7 4 Sudeste 16 Sur 3.2 -- -- 99
2019-11-15 01:00:00 4 3 Sur 13 Sudoeste 1.8 -- -- 100
2019-11-15 00:00:00 4 2 Sudoeste 7 Sur 0.4 -- -- 100